Time;durP1;ratioP1;P1;durP2;ratioP2;P2;SDS_P1;SDS_P2;PMS_P1;PMS_P2;Temp;Humidity;BMP_temperature;BMP_pressure;BME280_temperature;BME280_humidity;BME280_pressure;Samples;Min_cycle;Max_cycle;Signal;HPM_P1;HPM_P2
2022/04/05 00:01:37;;;;;;;22.58;13.27;;;11.40;94.40;;;;;;5071081;28;20052;-65
2022/04/05 00:04:41;;;;;;;17.25;11.18;;;11.40;92.70;;;;;;5071156;28;20397;-65
2022/04/05 00:07:45;;;;;;;17.10;9.13;;;11.50;91.10;;;;;;5071019;28;20059;-65
2022/04/05 00:10:49;;;;;;;16.58;8.15;;;11.50;90.60;;;;;;5070738;28;20039;-65
2022/04/05 00:13:53;;;;;;;14.05;5.55;;;11.50;90.40;;;;;;5071024;28;20048;-65
2022/04/05 00:16:57;;;;;;;10.15;4.63;;;11.60;89.40;;;;;;5070879;28;20495;-65
2022/04/05 00:20:03;;;;;;;8.07;3.90;;;11.60;88.10;;;;;;5071417;28;20487;-65
2022/04/05 00:23:06;;;;;;;10.73;3.85;;;11.70;87.10;;;;;;5070734;28;20541;-65
2022/04/05 00:26:10;;;;;;;7.43;3.70;;;11.70;86.50;;;;;;5070975;28;20059;-65
2022/04/05 00:29:14;;;;;;;7.78;3.67;;;11.70;86.00;;;;;;5070638;28;20043;-65
2022/04/05 00:32:18;;;;;;;7.47;4.63;;;11.70;86.00;;;;;;5070907;28;20052;-65
2022/04/05 00:35:23;;;;;;;6.80;4.20;;;11.60;86.20;;;;;;5070749;28;20048;-65
2022/04/05 00:38:27;;;;;;;11.35;4.10;;;11.70;86.70;;;;;;5070610;28;20039;-65
2022/04/05 00:41:31;;;;;;;6.28;3.72;;;11.60;86.50;;;;;;5070579;28;20511;-65
2022/04/05 00:44:35;;;;;;;6.32;3.20;;;11.60;86.90;;;;;;5070781;28;20056;-65
2022/04/05 00:47:39;;;;;;;5.05;3.38;;;11.60;85.20;;;;;;5070755;28;20040;-65
2022/04/05 00:50:43;;;;;;;5.47;3.25;;;11.60;85.50;;;;;;5070623;28;20044;-65
2022/04/05 00:53:50;;;;;;;5.90;2.58;;;11.60;85.40;;;;;;5070244;28;20503;-65
2022/04/05 00:56:56;;;;;;;8.35;2.20;;;11.60;84.70;;;;;;5074128;28;20491;-65
2022/04/05 01:00:04;;;;;;;7.95;2.50;;;11.60;83.70;;;;;;5074358;28;20067;-65
2022/04/05 01:03:10;;;;;;;5.78;2.63;;;11.60;83.20;;;;;;5073842;28;20055;-65
2022/04/05 01:06:21;;;;;;;6.55;2.65;;;11.60;82.60;;;;;;5074027;28;20047;-65
2022/04/05 01:09:26;;;;;;;7.32;2.28;;;11.70;82.70;;;;;;5073270;28;20048;-65
2022/04/05 01:12:29;;;;;;;6.28;2.65;;;11.70;83.10;;;;;;5073801;28;20396;-64
2022/04/05 01:15:36;;;;;;;6.85;2.75;;;11.60;83.50;;;;;;5074150;28;20051;-65
2022/04/05 01:18:41;;;;;;;6.88;2.45;;;11.70;82.40;;;;;;5073970;28;20048;-65
2022/04/05 01:21:45;;;;;;;4.68;2.28;;;11.70;82.70;;;;;;5073952;28;20056;-65
2022/04/05 01:24:51;;;;;;;5.10;2.42;;;11.70;82.60;;;;;;5073824;28;20051;-65
2022/04/05 01:27:55;;;;;;;5.57;2.40;;;11.70;83.00;;;;;;5074076;28;20052;-65
2022/04/05 01:30:59;;;;;;;12.35;2.75;;;11.70;83.50;;;;;;5073703;28;20043;-65
2022/04/05 01:34:03;;;;;;;4.47;2.30;;;11.70;84.20;;;;;;5073516;28;20067;-65
2022/04/05 01:37:10;;;;;;;6.20;2.70;;;11.70;83.30;;;;;;5073526;28;20044;-65
2022/04/05 01:40:14;;;;;;;6.78;2.53;;;11.70;83.40;;;;;;5073746;28;20063;-65
2022/04/05 01:43:18;;;;;;;8.20;3.28;;;11.70;82.80;;;;;;5073150;28;20056;-65
2022/04/05 01:46:22;;;;;;;6.88;2.60;;;11.70;82.50;;;;;;5073665;28;20397;-65
2022/04/05 01:49:26;;;;;;;6.38;2.80;;;11.60;83.00;;;;;;5073649;28;20051;-65
2022/04/05 01:52:30;;;;;;;3.97;2.78;;;11.60;84.00;;;;;;5073465;28;20040;-65
2022/04/05 01:55:34;;;;;;;8.35;2.65;;;11.50;83.60;;;;;;5073224;28;20098;-65
2022/04/05 01:58:38;;;;;;;4.25;2.63;;;11.50;84.00;;;;;;5073016;28;20044;-65
2022/04/05 02:01:42;;;;;;;6.18;2.50;;;11.50;85.50;;;;;;5072803;28;20051;-65
2022/04/05 02:04:46;;;;;;;8.45;2.83;;;11.40;83.70;;;;;;5073116;28;20052;-66
2022/04/05 02:07:52;;;;;;;5.72;2.35;;;11.40;83.80;;;;;;5073075;28;20483;-65
2022/04/05 02:10:56;;;;;;;4.68;2.20;;;11.40;84.00;;;;;;5072324;28;20405;-65
2022/04/05 02:14:02;;;;;;;4.00;2.45;;;11.40;83.30;;;;;;5072684;28;20048;-65
2022/04/05 02:17:08;;;;;;;5.35;2.33;;;11.50;83.20;;;;;;5072284;28;20055;-65
2022/04/05 02:20:14;;;;;;;6.78;2.30;;;11.40;82.40;;;;;;5072207;28;20047;-65
2022/04/05 02:23:18;;;;;;;3.53;2.22;;;11.50;82.70;;;;;;5071803;28;20055;-65
2022/04/05 02:26:44;;;;;;;4.40;2.13;;;11.50;82.70;;;;;;5071714;28;20044;-65
2022/04/05 02:29:47;;;;;;;5.15;2.17;;;11.50;82.20;;;;;;5072763;28;20051;-65
2022/04/05 02:32:57;;;;;;;7.53;2.08;;;11.40;81.90;;;;;;5072701;28;20047;-65
2022/04/05 02:36:04;;;;;;;4.22;2.00;;;11.40;82.60;;;;;;5071900;28;20060;-65
2022/04/05 02:39:09;;;;;;;5.00;2.25;;;11.40;82.70;;;;;;5072631;28;20051;-65
2022/04/05 02:42:16;;;;;;;6.55;2.45;;;11.40;82.80;;;;;;5071507;28;20130;-65
2022/04/05 02:45:21;;;;;;;6.85;2.63;;;11.40;83.20;;;;;;5071653;28;20063;-65
2022/04/05 02:48:30;;;;;;;4.50;2.75;;;11.30;83.40;;;;;;5071737;28;20044;-65
2022/04/05 02:51:36;;;;;;;4.75;2.33;;;11.40;83.90;;;;;;5071573;28;20202;-65
2022/04/05 02:54:47;;;;;;;7.43;2.38;;;11.30;83.80;;;;;;5071871;28;20040;-65
2022/04/05 02:57:52;;;;;;;7.22;2.05;;;11.30;84.20;;;;;;5071153;28;20052;-65
2022/04/05 03:01:04;;;;;;;6.40;2.50;;;11.20;84.40;;;;;;5071164;28;20040;-65
2022/04/05 03:04:09;;;;;;;3.50;2.33;;;11.20;85.00;;;;;;5070831;28;20075;-65
2022/04/05 03:07:15;;;;;;;5.03;2.70;;;11.30;85.00;;;;;;5070825;28;20051;-65
2022/04/05 03:10:19;;;;;;;6.97;2.00;;;11.30;85.80;;;;;;5070726;28;20044;-65
2022/04/05 03:13:27;;;;;;;5.32;2.40;;;11.30;84.60;;;;;;5070975;28;20056;-65
2022/04/05 03:16:37;;;;;;;4.40;2.30;;;11.30;84.80;;;;;;5059339;28;20495;-65
2022/04/05 03:19:42;;;;;;;6.35;2.30;;;11.30;85.10;;;;;;5070092;28;20048;-65
2022/04/05 03:22:48;;;;;;;9.13;2.30;;;11.20;84.90;;;;;;5070447;28;20060;-65
2022/04/05 03:25:52;;;;;;;8.80;2.67;;;11.20;84.70;;;;;;5071705;28;20051;-65
2022/04/05 03:28:58;;;;;;;3.30;1.88;;;11.20;83.70;;;;;;5070794;28;20055;-65
2022/04/05 03:32:04;;;;;;;5.82;2.58;;;11.20;83.30;;;;;;5070822;28;20067;-65
2022/04/05 03:35:10;;;;;;;5.90;2.65;;;11.30;83.00;;;;;;5070656;28;20099;-65
2022/04/05 03:38:15;;;;;;;3.67;2.17;;;11.30;82.80;;;;;;5070932;28;20051;-65
2022/04/05 03:41:21;;;;;;;4.40;2.17;;;11.40;83.10;;;;;;5070674;28;20047;-65
2022/04/05 03:44:26;;;;;;;5.05;2.05;;;11.30;83.20;;;;;;5070397;28;20052;-65
2022/04/05 03:47:31;;;;;;;5.35;2.35;;;11.30;83.20;;;;;;5071226;28;20099;-65
2022/04/05 03:50:35;;;;;;;3.80;2.20;;;11.30;83.10;;;;;;5069992;28;20051;-65
2022/04/05 03:53:39;;;;;;;8.52;2.08;;;11.30;83.20;;;;;;5069940;28;20043;-65
2022/04/05 03:56:49;;;;;;;6.72;1.92;;;11.20;83.00;;;;;;5071476;28;20506;-65
2022/04/05 03:59:56;;;;;;;5.95;2.17;;;11.20;83.10;;;;;;5070247;28;20055;-65
2022/04/05 04:03:00;;;;;;;8.63;2.13;;;11.20;83.40;;;;;;5069896;28;20052;-65
2022/04/05 04:06:04;;;;;;;4.90;1.98;;;11.30;83.60;;;;;;5070076;28;20400;-65
2022/04/05 04:09:11;;;;;;;5.68;2.47;;;11.20;83.50;;;;;;5070099;28;20063;-65
2022/04/05 04:12:15;;;;;;;4.78;2.25;;;11.20;83.90;;;;;;5070167;28;20047;-65
2022/04/05 04:15:22;;;;;;;12.15;2.95;;;11.10;84.30;;;;;;5070175;28;20051;-65
2022/04/05 04:18:28;;;;;;;5.75;2.70;;;11.10;83.90;;;;;;5069981;28;20039;-65
2022/04/05 04:21:34;;;;;;;6.20;2.70;;;11.00;85.50;;;;;;5070934;28;20047;-65
2022/04/05 04:24:38;;;;;;;8.35;3.17;;;10.90;86.80;;;;;;5071002;28;20055;-65
2022/04/05 04:27:42;;;;;;;6.50;2.33;;;10.90;87.20;;;;;;5069779;28;20514;-65
2022/04/05 04:30:46;;;;;;;7.28;2.40;;;10.90;85.50;;;;;;5074385;28;20507;-65
2022/04/05 04:33:50;;;;;;;4.75;2.30;;;10.80;85.10;;;;;;5074491;28;20047;-65
2022/04/05 04:36:54;;;;;;;6.63;2.28;;;10.90;84.90;;;;;;5074692;28;20063;-65
2022/04/05 04:39:58;;;;;;;7.50;1.90;;;10.90;84.80;;;;;;5074760;28;20396;-65
2022/04/05 04:43:03;;;;;;;5.22;2.33;;;10.90;85.00;;;;;;5073532;28;20055;-65
2022/04/05 04:46:07;;;;;;;13.15;2.72;;;10.90;85.10;;;;;;5074339;28;20068;-63
2022/04/05 04:49:11;;;;;;;9.23;3.28;;;10.90;85.60;;;;;;5074660;28;20389;-64
2022/04/05 04:52:15;;;;;;;6.07;3.00;;;10.90;85.70;;;;;;5074204;28;20052;-65
2022/04/05 04:55:22;;;;;;;6.55;2.67;;;11.00;85.00;;;;;;5074513;28;20499;-64
2022/04/05 04:58:27;;;;;;;8.75;2.17;;;11.00;84.70;;;;;;5074591;28;20514;-64
2022/04/05 05:01:31;;;;;;;8.50;2.90;;;11.00;84.70;;;;;;5074114;28;20048;-65
2022/04/05 05:04:35;;;;;;;7.38;2.22;;;11.00;84.90;;;;;;5073884;28;20043;-65
2022/04/05 05:07:40;;;;;;;5.97;1.95;;;11.10;85.00;;;;;;5073718;28;20048;-65
2022/04/05 05:10:44;;;;;;;8.18;2.55;;;11.10;84.80;;;;;;5073889;28;20039;-65
2022/04/05 05:13:48;;;;;;;7.93;2.72;;;11.10;84.70;;;;;;5074152;28;20040;-65
2022/04/05 05:16:53;;;;;;;6.97;2.25;;;11.20;84.30;;;;;;5073916;28;20424;-65
2022/04/05 05:19:57;;;;;;;6.88;2.00;;;11.30;84.30;;;;;;5074028;28;20118;-66
2022/04/05 05:23:01;;;;;;;10.07;2.17;;;11.30;84.10;;;;;;5073986;28;20051;-65
2022/04/05 05:26:05;;;;;;;6.60;2.20;;;11.40;84.40;;;;;;5073853;28;20510;-65
2022/04/05 05:29:09;;;;;;;11.57;2.55;;;11.50;84.00;;;;;;5073795;28;20055;-65
2022/04/05 05:32:13;;;;;;;5.45;2.33;;;11.50;83.60;;;;;;5073715;28;20040;-62
2022/04/05 05:35:20;;;;;;;9.40;2.60;;;11.70;83.50;;;;;;5073429;28;20044;-62
2022/04/05 05:38:24;;;;;;;15.05;3.25;;;11.90;84.00;;;;;;5073668;28;20055;-62
2022/04/05 05:41:28;;;;;;;9.23;2.33;;;12.30;84.70;;;;;;5072769;28;20039;-62
2022/04/05 05:44:32;;;;;;;12.05;2.80;;;13.20;81.90;;;;;;5073355;28;20074;-62
2022/04/05 05:47:36;;;;;;;8.32;2.47;;;14.20;79.30;;;;;;5073164;28;20051;-62
2022/04/05 05:50:41;;;;;;;8.88;2.72;;;14.90;75.60;;;;;;5073287;28;20158;-60
2022/04/05 05:53:45;;;;;;;11.60;3.17;;;15.50;73.90;;;;;;5071922;28;20044;-60
2022/04/05 05:56:49;;;;;;;11.43;2.47;;;16.00;72.40;;;;;;5072456;28;20515;-62
2022/04/05 05:59:53;;;;;;;13.85;2.70;;;16.20;70.90;;;;;;5073406;28;20044;-59
2022/04/05 06:03:01;;;;;;;8.02;2.20;;;16.30;70.70;;;;;;5072133;28;20064;-62
2022/04/05 06:06:05;;;;;;;12.57;2.55;;;16.30;70.90;;;;;;5072593;28;20648;-65
2022/04/05 06:09:09;;;;;;;13.45;2.45;;;16.10;70.80;;;;;;5072930;28;20507;-65
2022/04/05 06:12:14;;;;;;;9.43;2.83;;;15.80;70.80;;;;;;5072810;28;20051;-65
2022/04/05 06:15:19;;;;;;;7.45;2.40;;;15.70;71.60;;;;;;5072608;28;20043;-65
2022/04/05 06:18:24;;;;;;;13.00;2.20;;;15.70;71.60;;;;;;5073045;28;20055;-66
2022/04/05 06:21:28;;;;;;;4.05;1.80;;;15.70;70.90;;;;;;5072977;28;20046;-65
2022/04/05 06:24:31;;;;;;;13.40;2.20;;;15.50;70.20;;;;;;5072600;28;20047;-66
2022/04/05 06:27:37;;;;;;;10.35;2.28;;;15.60;71.50;;;;;;5072742;28;20067;-65
2022/04/05 06:30:42;;;;;;;5.82;1.80;;;15.60;71.00;;;;;;5072679;28;20051;-66
2022/04/05 06:33:46;;;;;;;9.20;2.13;;;15.80;70.60;;;;;;5072162;28;20044;-67
2022/04/05 06:36:50;;;;;;;3.95;1.60;;;16.00;70.00;;;;;;5071951;28;20047;-65
2022/04/05 06:39:54;;;;;;;5.75;1.85;;;16.20;68.00;;;;;;5072204;28;20119;-65
2022/04/05 06:42:58;;;;;;;7.13;2.15;;;16.20;68.40;;;;;;5072160;28;20158;-65
2022/04/05 06:46:02;;;;;;;9.15;2.35;;;16.30;68.80;;;;;;5072238;28;20491;-65
2022/04/05 06:49:06;;;;;;;4.20;1.75;;;16.40;67.40;;;;;;5072284;28;20498;-65
2022/04/05 06:52:10;;;;;;;11.55;2.75;;;16.20;67.20;;;;;;5072078;28;20059;-65
2022/04/05 06:55:13;;;;;;;7.68;2.10;;;16.10;67.20;;;;;;5072143;28;20047;-65
2022/04/05 06:58:17;;;;;;;4.35;1.60;;;16.00;68.70;;;;;;5072042;28;20123;-65
2022/04/05 07:01:21;;;;;;;5.25;1.70;;;16.30;68.20;;;;;;5071919;28;20039;-66
2022/04/05 07:04:26;;;;;;;8.85;2.78;;;16.20;67.80;;;;;;5071839;28;20052;-65
2022/04/05 07:07:30;;;;;;;14.10;2.03;;;16.20;67.60;;;;;;5071423;28;20047;-65
2022/04/05 07:10:34;;;;;;;3.65;1.27;;;16.30;67.70;;;;;;5071691;28;20044;-65
2022/04/05 07:13:39;;;;;;;4.75;2.08;;;16.30;66.00;;;;;;5071746;28;20051;-65
2022/04/05 07:16:43;;;;;;;4.80;1.90;;;16.30;66.40;;;;;;5071444;28;20043;-65
2022/04/05 07:19:47;;;;;;;3.10;1.73;;;16.20;67.30;;;;;;5071745;28;20059;-65
2022/04/05 07:22:51;;;;;;;3.38;1.67;;;16.20;66.50;;;;;;5071682;28;20052;-65
2022/04/05 07:25:55;;;;;;;5.80;1.90;;;16.40;65.90;;;;;;5071273;28;20043;-65
2022/04/05 07:28:59;;;;;;;7.50;1.80;;;16.50;66.60;;;;;;5071625;28;20042;-66
2022/04/05 07:32:03;;;;;;;6.32;2.00;;;16.70;66.20;;;;;;5071140;28;20043;-65
2022/04/05 07:35:08;;;;;;;4.90;2.13;;;16.80;65.70;;;;;;5071138;28;20048;-65
2022/04/05 07:38:12;;;;;;;4.72;2.05;;;16.80;65.80;;;;;;5071452;28;20043;-66
2022/04/05 07:41:19;;;;;;;12.27;2.28;;;17.00;66.40;;;;;;5071563;28;20495;-65
2022/04/05 07:44:22;;;;;;;4.45;1.63;;;16.80;66.00;;;;;;5071231;28;20415;-66
2022/04/05 07:47:27;;;;;;;3.63;1.50;;;16.60;66.70;;;;;;5071015;28;20517;-66
2022/04/05 07:50:31;;;;;;;6.82;1.90;;;16.60;66.80;;;;;;5071591;28;20039;-65
2022/04/05 07:53:34;;;;;;;4.60;2.13;;;16.60;67.60;;;;;;5071283;28;20102;-66
2022/04/05 07:56:38;;;;;;;11.10;2.17;;;16.70;67.30;;;;;;5071329;28;20043;-65
2022/04/05 07:59:42;;;;;;;5.40;1.98;;;16.90;67.50;;;;;;5071175;28;20044;-66
2022/04/05 08:02:46;;;;;;;3.45;1.90;;;16.90;66.50;;;;;;5070781;28;20052;-65
2022/04/05 08:05:50;;;;;;;9.50;2.17;;;17.00;65.40;;;;;;5070942;28;20052;-64
2022/04/05 08:08:54;;;;;;;5.97;2.10;;;16.90;65.20;;;;;;5070847;28;20060;-65
2022/04/05 08:11:58;;;;;;;5.70;2.40;;;16.80;65.30;;;;;;5070876;28;20047;-65
2022/04/05 08:15:02;;;;;;;5.80;2.42;;;16.90;64.70;;;;;;5070768;28;20063;-65
2022/04/05 08:18:07;;;;;;;3.85;2.22;;;16.70;65.10;;;;;;5071151;28;20150;-65
2022/04/05 08:21:10;;;;;;;4.20;2.13;;;16.70;65.40;;;;;;5070958;28;20051;-65
2022/04/05 08:24:15;;;;;;;4.50;2.13;;;17.00;66.60;;;;;;5070744;28;20060;-65
2022/04/05 08:27:19;;;;;;;3.53;2.08;;;17.30;66.50;;;;;;5070981;28;20043;-65
2022/04/05 08:30:23;;;;;;;5.55;2.08;;;17.30;63.50;;;;;;5070637;28;20055;-65
2022/04/05 08:33:27;;;;;;;5.30;2.13;;;17.20;63.20;;;;;;5070549;28;20067;-65
2022/04/05 08:36:31;;;;;;;5.60;2.22;;;17.30;63.80;;;;;;5070803;28;20475;-65
2022/04/05 08:39:36;;;;;;;5.53;2.08;;;17.20;62.70;;;;;;5070543;28;20400;-65
2022/04/05 08:42:43;;;;;;;4.53;2.13;;;16.90;63.60;;;;;;5070559;28;20643;-65
2022/04/05 08:45:59;;;;;;;8.13;2.47;;;16.90;63.60;;;;;;5070932;28;20064;-65
2022/04/05 08:49:03;;;;;;;7.88;2.47;;;17.00;63.60;;;;;;5070402;28;20043;-65
2022/04/05 08:52:08;;;;;;;6.72;2.55;;;17.20;63.30;;;;;;5070703;28;20047;-65
2022/04/05 08:55:14;;;;;;;4.60;2.20;;;17.40;62.90;;;;;;5070701;28;20507;-65
2022/04/05 08:58:19;;;;;;;6.53;2.38;;;17.40;63.10;;;;;;5070608;28;20048;-65
2022/04/05 09:01:23;;;;;;;4.50;2.60;;;17.50;63.20;;;;;;5070404;28;20044;-65
2022/04/05 09:04:32;;;;;;;6.38;2.28;;;17.60;63.80;;;;;;5070237;28;20071;-66
2022/04/05 09:07:37;;;;;;;3.65;2.00;;;17.70;63.50;;;;;;5070269;28;20052;-66
2022/04/05 09:10:45;;;;;;;3.00;1.80;;;17.90;62.60;;;;;;5070285;28;20055;-65
2022/04/05 09:14:00;;;;;;;4.10;2.05;;;18.00;61.20;;;;;;5070093;28;20043;-65
2022/04/05 09:17:06;;;;;;;5.65;2.20;;;18.20;60.90;;;;;;5072665;28;20530;-66
2022/04/05 09:20:12;;;;;;;7.90;2.40;;;18.30;60.60;;;;;;5074016;28;20055;-65
2022/04/05 09:23:30;;;;;;;4.82;2.00;;;18.10;58.30;;;;;;5073370;28;20055;-65
2022/04/05 09:26:43;;;;;;;6.03;2.40;;;18.10;58.00;;;;;;5073790;28;20044;-66
2022/04/05 09:29:50;;;;;;;3.75;2.15;;;18.20;58.90;;;;;;5073987;28;20510;-66
2022/04/05 09:32:55;;;;;;;5.63;2.40;;;18.20;59.90;;;;;;5073627;28;20036;-66
2022/04/05 09:36:16;;;;;;;5.30;2.20;;;18.20;60.30;;;;;;5073836;28;20048;-67
2022/04/05 09:39:23;;;;;;;7.20;1.80;;;18.20;59.30;;;;;;5073757;28;20063;-65
2022/04/05 09:42:27;;;;;;;4.00;1.88;;;18.30;59.60;;;;;;5073515;28;20396;-64
2022/04/05 09:45:55;;;;;;;7.53;2.17;;;18.40;57.60;;;;;;5075023;28;20522;-64
2022/04/05 09:49:08;;;;;;;3.40;1.55;;;18.50;56.70;;;;;;5073807;28;20048;-65
2022/04/05 09:52:30;;;;;;;11.85;2.47;;;18.40;53.30;;;;;;5073348;28;20036;-65
2022/04/05 09:55:34;;;;;;;2.65;1.45;;;18.50;55.30;;;;;;5073764;28;20511;-65
2022/04/05 09:58:48;;;;;;;6.38;2.30;;;18.60;56.60;;;;;;5073393;28;20146;-66
2022/04/05 10:01:56;;;;;;;3.85;2.10;;;18.80;58.70;;;;;;5072018;28;20076;-67
2022/04/05 10:05:08;;;;;;;3.17;1.92;;;19.10;59.10;;;;;;5073316;28;20052;-68
2022/04/05 10:08:12;;;;;;;6.03;2.50;;;19.20;59.00;;;;;;5072519;28;20055;-67
2022/04/05 10:11:15;;;;;;;8.18;1.95;;;19.40;57.70;;;;;;5073410;28;20083;-64
2022/04/05 10:14:23;;;;;;;5.82;2.00;;;19.30;56.10;;;;;;5073202;28;20040;-65
2022/04/05 10:17:28;;;;;;;3.88;1.90;;;19.00;55.40;;;;;;5073011;28;20044;-65
2022/04/05 10:20:34;;;;;;;5.57;2.22;;;18.90;55.10;;;;;;5073114;28;20039;-65
2022/04/05 10:23:43;;;;;;;2.88;1.85;;;19.00;58.80;;;;;;5072777;28;20043;-65
2022/04/05 10:26:49;;;;;;;4.10;2.00;;;19.20;60.70;;;;;;5072436;28;20139;-65
2022/04/05 10:30:07;;;;;;;6.95;2.28;;;19.30;57.20;;;;;;5072713;28;20044;-67
2022/04/05 10:33:21;;;;;;;4.63;1.60;;;19.20;57.90;;;;;;5072173;28;20051;-67
2022/04/05 10:36:25;;;;;;;4.90;1.88;;;19.40;58.60;;;;;;5071941;28;20056;-65
2022/04/05 10:39:29;;;;;;;2.92;1.45;;;19.60;59.60;;;;;;5072479;28;20063;-67
2022/04/05 10:42:36;;;;;;;7.25;1.92;;;19.80;59.50;;;;;;5072100;28;20047;-68
2022/04/05 10:45:44;;;;;;;3.97;1.67;;;20.00;59.10;;;;;;5072192;28;20067;-66
2022/04/05 10:48:55;;;;;;;5.18;2.00;;;20.00;59.50;;;;;;5071886;28;20043;-65
2022/04/05 10:52:15;;;;;;;10.13;2.37;;;20.00;58.50;;;;;;5072017;28;20103;-65
2022/04/05 10:55:20;;;;;;;3.72;2.38;;;20.00;57.20;;;;;;5072045;28;20273;-64
2022/04/05 10:58:24;;;;;;;6.80;2.13;;;19.90;55.70;;;;;;5071933;28;20107;-65
2022/04/05 11:01:43;;;;;;;4.55;1.70;;;19.70;57.90;;;;;;5072218;28;20111;-67
2022/04/05 11:04:47;;;;;;;6.18;2.15;;;19.70;58.70;;;;;;5071719;28;20059;-66
2022/04/05 11:07:54;;;;;;;3.38;1.73;;;19.70;57.60;;;;;;5071485;28;20448;-64
2022/04/05 11:11:04;;;;;;;3.40;2.05;;;19.70;55.90;;;;;;5071940;28;20044;-65
2022/04/05 11:14:08;;;;;;;2.80;1.90;;;19.70;56.70;;;;;;5071888;28;20047;-66
2022/04/05 11:17:14;;;;;;;4.40;1.70;;;19.80;56.90;;;;;;5071708;28;20039;-64
2022/04/05 11:20:20;;;;;;;7.88;1.83;;;19.80;56.10;;;;;;5071897;28;20048;-66
2022/04/05 11:23:51;;;;;;;4.80;2.42;;;19.80;56.30;;;;;;5071657;28;20047;-65
2022/04/05 11:27:25;;;;;;;5.72;1.80;;;19.90;56.30;;;;;;5071668;28;20056;-66
2022/04/05 11:30:28;;;;;;;4.93;2.88;;;19.90;54.30;;;;;;5070383;28;20048;-66
2022/04/05 11:33:37;;;;;;;7.07;2.10;;;19.80;54.30;;;;;;5071064;28;20045;-65
2022/04/05 11:36:42;;;;;;;4.05;2.00;;;19.80;55.70;;;;;;5071234;28;20063;-65
2022/04/05 11:39:46;;;;;;;4.70;2.22;;;19.80;54.80;;;;;;5070793;28;20059;-65
2022/04/05 11:42:51;;;;;;;4.88;2.05;;;19.80;55.60;;;;;;5071187;28;20051;-65
2022/04/05 11:46:09;;;;;;;7.97;2.58;;;19.80;54.40;;;;;;5070582;28;20060;-64
2022/04/05 11:49:14;;;;;;;4.65;1.90;;;19.70;54.60;;;;;;5070661;28;20047;-66
2022/04/05 11:52:27;;;;;;;3.75;2.10;;;19.60;55.60;;;;;;5070713;28;20043;-65
2022/04/05 11:58:58;;;;;;;4.43;2.72;;;19.60;57.90;;;;;;5070470;28;20035;-66
2022/04/05 12:02:03;;;;;;;5.88;2.15;;;19.70;58.40;;;;;;5070828;28;20396;-66
2022/04/05 12:05:08;;;;;;;6.88;2.45;;;19.70;59.50;;;;;;5070606;28;20063;-66
2022/04/05 12:08:13;;;;;;;6.07;3.00;;;19.70;58.90;;;;;;5071266;28;20067;-66
2022/04/05 12:11:20;;;;;;;5.40;2.30;;;19.70;60.50;;;;;;5070883;28;20389;-66
2022/04/05 12:14:28;;;;;;;3.60;2.22;;;19.70;59.60;;;;;;5071010;28;20048;-66
2022/04/05 12:17:32;;;;;;;8.32;2.63;;;19.70;60.40;;;;;;5070881;28;20036;-65
2022/04/05 12:20:36;;;;;;;3.60;2.65;;;19.70;57.50;;;;;;5070216;28;20123;-67
2022/04/05 12:23:42;;;;;;;10.48;3.08;;;19.70;57.60;;;;;;5070552;28;20047;-67
2022/04/05 12:26:47;;;;;;;4.40;2.45;;;19.60;57.00;;;;;;5070460;28;20471;-66
2022/04/05 12:30:03;;;;;;;10.60;2.83;;;19.40;57.10;;;;;;5070971;28;20068;-66
2022/04/05 12:33:08;;;;;;;4.65;2.30;;;19.50;55.80;;;;;;5070307;28;20060;-67
2022/04/05 12:36:13;;;;;;;2.88;1.63;;;19.30;56.20;;;;;;5070439;28;20538;-67
2022/04/05 12:39:26;;;;;;;6.57;1.90;;;19.40;59.30;;;;;;5070805;28;20043;-67
2022/04/05 12:42:40;;;;;;;5.80;2.47;;;19.40;59.90;;;;;;5070602;28;20573;-66
2022/04/05 12:45:43;;;;;;;4.97;2.00;;;19.50;57.50;;;;;;5070544;28;20056;-66
2022/04/05 12:48:47;;;;;;;4.85;3.50;;;19.60;57.00;;;;;;5070927;28;20047;-67
2022/04/05 12:51:53;;;;;;;6.57;2.22;;;19.60;56.60;;;;;;5074534;28;20495;-67
2022/04/05 12:54:59;;;;;;;3.50;2.30;;;19.60;58.70;;;;;;5074495;28;20040;-66
2022/04/05 12:58:03;;;;;;;6.55;2.35;;;19.60;55.80;;;;;;5074327;28;20040;-66
2022/04/05 13:01:22;;;;;;;5.85;2.38;;;19.60;55.00;;;;;;5074371;28;20047;-66
2022/04/05 13:04:27;;;;;;;6.47;2.70;;;19.70;56.00;;;;;;5074037;28;20059;-67
2022/04/05 13:07:30;;;;;;;9.73;3.08;;;19.60;57.50;;;;;;5073970;28;20594;-66
2022/04/05 13:10:38;;;;;;;4.50;1.90;;;19.70;56.60;;;;;;5074443;28;20052;-66
2022/04/05 13:13:42;;;;;;;8.25;3.05;;;19.70;57.70;;;;;;5074061;28;20082;-67
2022/04/05 13:16:48;;;;;;;5.85;2.58;;;19.70;58.70;;;;;;5073963;28;20035;-65
2022/04/05 13:19:55;;;;;;;5.22;3.05;;;19.70;59.50;;;;;;5074289;28;20043;-66
2022/04/05 13:23:04;;;;;;;6.57;2.80;;;19.70;59.20;;;;;;5074039;28;20059;-68
2022/04/05 13:26:23;;;;;;;5.97;2.50;;;19.70;56.90;;;;;;5074043;28;20036;-67
2022/04/05 13:29:28;;;;;;;7.38;2.55;;;19.70;57.10;;;;;;5073784;28;20048;-67
2022/04/05 13:32:34;;;;;;;7.00;2.55;;;19.70;57.70;;;;;;5073836;28;20384;-66
2022/04/05 13:35:38;;;;;;;5.55;3.25;;;19.70;57.40;;;;;;5073150;28;20051;-65
2022/04/05 13:38:42;;;;;;;7.85;3.47;;;19.60;57.80;;;;;;5073480;28;20051;-66
2022/04/05 13:41:47;;;;;;;6.97;2.67;;;19.60;58.00;;;;;;5073197;28;20491;-65
2022/04/05 13:44:51;;;;;;;11.70;3.50;;;19.60;57.90;;;;;;5073609;28;20075;-66
2022/04/05 13:47:55;;;;;;;6.95;2.45;;;19.50;57.90;;;;;;5073352;28;20052;-67
2022/04/05 13:50:59;;;;;;;7.68;3.17;;;19.60;57.80;;;;;;5073396;28;20052;-66
2022/04/05 13:54:05;;;;;;;11.30;2.95;;;19.60;57.60;;;;;;5073404;28;20043;-66
2022/04/05 13:57:11;;;;;;;11.93;3.45;;;19.50;56.60;;;;;;5072927;28;20044;-66
2022/04/05 14:00:16;;;;;;;7.05;2.80;;;19.50;56.80;;;;;;5071621;28;20048;-65
2022/04/05 14:03:20;;;;;;;5.82;2.47;;;19.50;57.20;;;;;;5071661;28;20056;-66
2022/04/05 14:06:24;;;;;;;6.32;2.42;;;19.50;57.30;;;;;;5072271;28;20071;-66
2022/04/05 14:09:28;;;;;;;8.02;2.70;;;19.50;57.70;;;;;;5072248;28;20043;-66
2022/04/05 14:12:32;;;;;;;4.35;2.20;;;19.40;57.30;;;;;;5072448;28;20051;-65
2022/04/05 14:15:36;;;;;;;6.50;2.40;;;19.40;57.40;;;;;;5072883;28;20399;-65
2022/04/05 14:18:41;;;;;;;4.13;1.63;;;19.40;58.20;;;;;;5073074;28;20056;-64
2022/04/05 14:21:45;;;;;;;5.55;2.15;;;19.40;58.20;;;;;;5072539;28;20044;-65
2022/04/05 14:24:49;;;;;;;9.05;3.20;;;19.30;58.30;;;;;;5072750;28;20052;-65
2022/04/05 14:27:53;;;;;;;9.88;3.05;;;19.30;58.90;;;;;;5072770;28;20388;-66
2022/04/05 14:30:57;;;;;;;6.78;3.28;;;19.30;59.30;;;;;;5072415;28;20043;-66
2022/04/05 14:34:02;;;;;;;8.93;2.75;;;19.30;59.20;;;;;;5072515;28;20399;-66
2022/04/05 14:37:06;;;;;;;5.97;2.38;;;19.30;59.10;;;;;;5072742;28;20059;-66
2022/04/05 14:40:11;;;;;;;5.18;2.17;;;19.20;59.70;;;;;;5072520;28;20475;-63
2022/04/05 14:43:15;;;;;;;4.88;2.20;;;19.20;60.10;;;;;;5071926;28;20052;-66
2022/04/05 14:46:20;;;;;;;11.18;2.63;;;19.10;60.50;;;;;;5072363;28;20051;-66
2022/04/05 14:49:26;;;;;;;4.65;2.30;;;19.10;60.40;;;;;;5072158;28;20392;-66
2022/04/05 14:52:30;;;;;;;7.80;2.50;;;19.00;60.40;;;;;;5071708;28;20071;-66
2022/04/05 14:55:35;;;;;;;4.63;2.33;;;19.00;59.80;;;;;;5072276;28;20643;-66
2022/04/05 14:58:40;;;;;;;10.25;3.75;;;18.90;59.50;;;;;;5071677;28;20044;-66
2022/04/05 15:01:44;;;;;;;7.63;3.70;;;18.90;59.90;;;;;;5071870;28;20044;-66
2022/04/05 15:04:49;;;;;;;9.35;3.28;;;18.80;59.90;;;;;;5071733;28;20059;-67
2022/04/05 15:07:53;;;;;;;18.58;5.72;;;18.80;60.40;;;;;;5071653;28;20056;-65
2022/04/05 15:10:57;;;;;;;10.82;3.95;;;18.80;60.80;;;;;;5071726;28;20396;-66
2022/04/05 15:14:01;;;;;;;5.95;2.80;;;18.70;61.10;;;;;;5070871;28;20039;-65
2022/04/05 15:17:06;;;;;;;6.45;2.70;;;18.70;61.20;;;;;;5071979;28;20392;-65
2022/04/05 15:20:10;;;;;;;8.40;2.70;;;18.70;60.50;;;;;;5070895;28;20044;-65
2022/04/05 15:23:13;;;;;;;8.95;3.55;;;18.60;60.80;;;;;;5071503;28;20051;-66
2022/04/05 15:26:18;;;;;;;5.07;2.42;;;18.60;60.60;;;;;;5071314;28;20387;-65
2022/04/05 15:29:22;;;;;;;5.93;2.40;;;18.60;60.80;;;;;;5071475;28;20578;-66
2022/04/05 15:32:26;;;;;;;11.07;2.70;;;18.60;60.70;;;;;;5070569;28;20047;-66
2022/04/05 15:35:33;;;;;;;4.63;2.15;;;18.60;60.70;;;;;;5069884;28;20055;-64
2022/04/05 15:38:38;;;;;;;8.13;3.22;;;18.60;61.30;;;;;;5069744;28;20159;-66
2022/04/05 15:41:41;;;;;;;7.30;3.67;;;18.60;59.70;;;;;;5070913;28;20059;-64
2022/04/05 15:44:47;;;;;;;9.68;2.95;;;18.60;60.80;;;;;;5069273;28;20051;-65
2022/04/05 15:47:51;;;;;;;4.47;2.30;;;18.60;59.20;;;;;;5069137;28;20063;-65
2022/04/05 15:50:55;;;;;;;7.25;2.50;;;18.50;60.50;;;;;;5069395;28;20051;-65
2022/04/05 15:53:59;;;;;;;9.77;2.50;;;18.50;59.90;;;;;;5069020;28;20055;-64
2022/04/05 15:57:04;;;;;;;15.50;3.10;;;18.40;60.10;;;;;;5068932;28;20043;-65
2022/04/05 16:00:11;;;;;;;8.98;2.67;;;18.40;57.90;;;;;;5071038;28;20059;-65
2022/04/05 16:03:15;;;;;;;9.15;2.92;;;18.30;58.30;;;;;;5071172;28;20036;-65
2022/04/05 16:06:20;;;;;;;9.43;3.00;;;18.30;59.80;;;;;;5070621;28;20056;-66
2022/04/05 16:09:24;;;;;;;11.50;2.55;;;18.30;60.10;;;;;;5069792;28;20581;-64